createdAt,value
2023-02-19T08:53:27.926Z,17.57
2023-02-19T08:55:54.547Z,18.03
2023-02-19T08:58:21.180Z,11.07
2023-02-19T09:00:47.950Z,15.13
2023-02-19T09:03:14.652Z,18.60
2023-02-19T09:05:41.644Z,19.90
2023-02-19T09:08:08.738Z,17.97
2023-02-19T09:10:35.335Z,19.03
2023-02-19T09:13:02.684Z,19.40
2023-02-19T09:15:30.157Z,17.60
2023-02-19T09:17:57.802Z,18.50
2023-02-19T09:20:24.403Z,27.57
2023-02-19T09:22:50.991Z,40.43
2023-02-19T09:25:17.610Z,23.03
2023-02-19T09:27:44.162Z,21.50
2023-02-19T09:30:11.261Z,15.20
2023-02-19T09:32:37.835Z,16.73
2023-02-19T09:35:04.764Z,14.27
2023-02-19T09:37:33.790Z,16.50
2023-02-19T09:40:00.688Z,14.77
2023-02-19T09:42:32.486Z,12.53
2023-02-19T09:45:00.399Z,12.17
2023-02-19T09:47:29.097Z,15.23
2023-02-19T09:50:17.398Z,11.97
2023-02-19T09:52:50.201Z,12.33
2023-02-19T09:55:28.912Z,13.90
2023-02-19T09:58:00.852Z,15.33
2023-02-19T10:00:30.526Z,16.17
2023-02-19T10:03:22.718Z,15.00
2023-02-19T10:05:49.772Z,18.90
2023-02-19T10:08:19.948Z,10.50
2023-02-19T10:10:46.647Z,12.13
2023-02-19T10:13:20.698Z,14.63
2023-02-19T10:16:00.307Z,10.93
2023-02-19T10:18:28.866Z,13.23
2023-02-19T10:21:00.306Z,11.03
2023-02-19T10:23:27.164Z,10.90
2023-02-19T10:25:57.684Z,7.80
2023-02-19T10:28:28.416Z,10.13
2023-02-19T10:30:58.497Z,13.43
2023-02-19T10:33:26.227Z,14.70
2023-02-19T10:36:20.447Z,11.63
2023-02-19T10:38:47.954Z,11.03
2023-02-19T10:41:17.734Z,16.27
2023-02-19T10:43:53.311Z,9.40
2023-02-19T10:46:25.680Z,12.47
2023-02-19T10:48:54.302Z,16.73
2023-02-19T10:51:21.931Z,10.87
2023-02-19T10:53:51.640Z,14.20
2023-02-19T10:56:25.206Z,13.50
2023-02-19T10:58:51.981Z,10.17
2023-02-19T11:01:22.471Z,8.43
2023-02-19T11:03:53.406Z,11.80
2023-02-19T11:06:22.026Z,12.13
2023-02-19T11:08:58.007Z,11.87
2023-02-19T11:11:35.949Z,8.23
2023-02-19T11:14:17.360Z,12.27
2023-02-19T11:16:49.383Z,9.00
2023-02-19T11:19:27.343Z,8.87
2023-02-19T11:21:54.398Z,11.80
2023-02-19T11:24:29.669Z,9.00
2023-02-19T11:26:57.841Z,11.03
2023-02-19T11:29:28.654Z,11.17
2023-02-19T11:31:57.968Z,10.50
2023-02-19T11:34:30.042Z,11.17
2023-02-19T11:37:08.619Z,13.63
2023-02-19T11:39:35.884Z,9.53
2023-02-19T11:42:20.728Z,9.27
2023-02-19T11:45:07.207Z,8.07
2023-02-19T11:48:02.855Z,8.50
2023-02-19T11:50:50.700Z,15.00
2023-02-19T11:53:32.392Z,8.10
2023-02-19T11:56:23.854Z,10.30
2023-02-19T11:59:05.598Z,10.47
2023-02-19T12:01:35.306Z,10.50
2023-02-19T12:04:04.581Z,8.03
2023-02-19T12:07:16.472Z,11.87
2023-02-19T12:10:13.098Z,6.43
2023-02-19T12:13:10.839Z,12.37
2023-02-19T12:15:42.667Z,5.97
2023-02-19T12:18:14.067Z,7.67
2023-02-19T12:21:25.382Z,12.03
2023-02-19T12:24:03.742Z,11.93
2023-02-19T12:26:51.627Z,7.80
2023-02-19T12:29:33.817Z,7.87
2023-02-19T12:32:28.188Z,9.10
2023-02-19T12:35:31.977Z,11.00
2023-02-19T12:38:16.523Z,7.13
2023-02-19T12:41:17.098Z,9.40
2023-02-19T12:44:16.190Z,8.60
2023-02-19T12:46:48.156Z,9.53
2023-02-19T12:49:39.885Z,9.70
2023-02-19T12:52:26.920Z,7.97
2023-02-19T12:55:00.470Z,15.80
2023-02-19T12:57:33.855Z,10.27
2023-02-19T13:00:23.563Z,9.07
2023-02-19T13:03:32.641Z,15.83
2023-02-19T13:06:25.922Z,7.87
2023-02-19T13:09:06.266Z,11.80
2023-02-19T13:11:38.384Z,6.83
2023-02-19T13:14:28.622Z,9.07
2023-02-19T13:17:01.699Z,11.73
2023-02-19T13:19:29.671Z,8.33
2023-02-19T13:22:38.090Z,8.07
2023-02-19T13:25:05.259Z,8.70
2023-02-19T13:30:41.200Z,8.43
2023-02-19T13:33:33.716Z,15.00
2023-02-19T13:36:11.956Z,15.10
2023-02-19T13:38:40.953Z,31.87
2023-02-19T13:41:17.872Z,15.03
2023-02-19T13:43:46.891Z,15.27
2023-02-19T13:46:16.440Z,13.20
2023-02-19T13:48:44.513Z,11.03
2023-02-19T13:51:21.654Z,6.90
2023-02-19T13:53:48.332Z,8.50
2023-02-19T13:56:30.271Z,12.00
2023-02-19T13:59:01.539Z,4.83
2023-02-19T14:01:53.081Z,12.73
2023-02-19T14:04:25.020Z,12.30
2023-02-19T14:07:03.649Z,12.23
2023-02-19T14:09:44.012Z,6.53
2023-02-19T14:12:10.495Z,13.10
2023-02-19T14:14:57.381Z,8.53
2023-02-19T14:17:34.903Z,6.17
2023-02-19T14:20:40.985Z,7.97
2023-02-19T14:23:18.376Z,12.63
2023-02-19T14:25:52.046Z,9.97
2023-02-19T14:28:27.576Z,9.87
2023-02-19T14:30:55.914Z,12.93
2023-02-19T14:33:28.786Z,6.07
2023-02-19T14:36:05.924Z,7.83
2023-02-19T14:38:43.753Z,8.97
2023-02-19T14:41:12.941Z,9.33
2023-02-19T14:43:39.946Z,7.73
2023-02-19T14:46:16.490Z,8.27
2023-02-19T14:48:45.965Z,7.80
2023-02-19T14:51:22.964Z,4.30
2023-02-19T14:53:49.853Z,6.83
2023-02-19T14:56:26.324Z,9.27
2023-02-19T14:59:28.706Z,6.40
2023-02-19T15:02:01.314Z,3.40
2023-02-19T15:04:31.452Z,6.10
2023-02-19T15:07:01.977Z,8.27
2023-02-19T15:09:41.415Z,5.70
2023-02-19T15:12:08.403Z,8.23
2023-02-19T15:14:34.939Z,9.20
2023-02-19T15:17:04.276Z,6.03
2023-02-19T15:19:35.074Z,5.83
2023-02-19T15:22:02.580Z,5.70
2023-02-19T15:24:29.439Z,7.03
2023-02-19T15:26:57.542Z,12.20
2023-02-19T15:29:26.407Z,7.63
2023-02-19T15:31:59.854Z,8.83
2023-02-19T15:34:31.388Z,9.23
2023-02-19T15:37:00.469Z,9.30
2023-02-19T15:39:41.788Z,12.13
2023-02-19T15:42:11.175Z,8.90
2023-02-19T15:45:01.466Z,8.20
2023-02-19T15:47:33.466Z,10.27
2023-02-19T15:50:13.139Z,5.70
2023-02-19T15:52:46.472Z,7.93
2023-02-19T15:55:37.044Z,10.03
2023-02-19T15:58:12.878Z,9.03
2023-02-19T16:00:45.678Z,7.90
2023-02-19T16:03:20.413Z,6.83
2023-02-19T16:05:59.478Z,10.03
2023-02-19T16:08:34.470Z,7.77
2023-02-19T16:11:03.579Z,9.90
2023-02-19T16:13:32.965Z,14.20
2023-02-19T16:16:06.082Z,10.30
2023-02-19T16:18:33.411Z,8.87
2023-02-19T16:21:00.090Z,14.30
2023-02-19T16:23:27.417Z,9.43
2023-02-19T16:26:01.504Z,10.07
2023-02-19T16:28:29.741Z,9.20
2023-02-19T16:30:58.057Z,17.43
2023-02-19T16:33:31.982Z,7.53
2023-02-19T16:35:59.082Z,9.67
2023-02-19T16:38:25.664Z,8.40
2023-02-19T16:40:52.380Z,9.40
2023-02-19T16:43:31.231Z,14.50
2023-02-19T16:45:58.659Z,9.40
2023-02-19T16:48:25.493Z,11.43
2023-02-19T16:50:52.255Z,16.90
2023-02-19T16:53:25.353Z,40.67
2023-02-19T16:55:52.394Z,47.83
2023-02-19T16:58:19.134Z,43.07
2023-02-19T17:00:46.119Z,29.80
2023-02-19T17:03:16.512Z,18.87
2023-02-19T17:05:43.183Z,24.13
2023-02-19T17:08:38.634Z,10.10
2023-02-19T17:11:07.578Z,12.57
2023-02-19T17:13:34.107Z,16.87
2023-02-19T17:16:01.239Z,9.87
2023-02-19T17:18:28.111Z,13.47
2023-02-19T17:21:14.472Z,13.30
2023-02-19T17:23:41.055Z,12.20
2023-02-19T17:26:12.016Z,11.37
2023-02-19T17:28:41.264Z,9.37
2023-02-19T17:31:09.764Z,9.30
2023-02-19T17:33:37.145Z,9.47
2023-02-19T17:36:04.153Z,9.83
2023-02-19T17:38:30.671Z,12.47
2023-02-19T17:40:57.845Z,8.50
2023-02-19T17:43:25.523Z,11.47
2023-02-19T17:45:52.048Z,10.50
2023-02-19T17:48:18.596Z,11.40
2023-02-19T17:50:45.211Z,11.43
2023-02-19T17:53:11.928Z,12.17
2023-02-19T17:55:38.476Z,8.07
2023-02-19T17:58:05.618Z,5.83
2023-02-19T18:00:32.296Z,7.37
2023-02-19T18:02:58.774Z,9.10
2023-02-19T18:05:25.460Z,9.37
2023-02-19T18:07:51.982Z,6.33
2023-02-19T18:10:19.746Z,12.63
2023-02-19T18:12:46.510Z,32.53
2023-02-19T18:15:18.856Z,24.53
2023-02-19T18:17:45.618Z,14.90
2023-02-19T18:20:17.861Z,18.60
2023-02-19T18:22:44.513Z,13.77
2023-02-19T18:25:11.695Z,14.20
2023-02-19T18:27:38.512Z,15.07
2023-02-19T18:30:06.052Z,14.30
2023-02-19T18:32:32.693Z,15.20
2023-02-19T18:35:02.615Z,18.93
2023-02-19T18:37:32.960Z,18.90
2023-02-19T18:40:00.418Z,15.07
2023-02-19T18:42:27.316Z,15.63
2023-02-19T18:44:54.939Z,10.63
2023-02-19T18:47:22.732Z,12.40
2023-02-19T18:49:50.540Z,10.47
2023-02-19T18:52:21.982Z,11.43
2023-02-19T18:54:50.657Z,13.73
2023-02-19T18:57:18.763Z,13.67
2023-02-19T18:59:45.608Z,13.57
2023-02-19T19:02:12.508Z,11.37
2023-02-19T19:04:39.347Z,9.70
2023-02-19T19:07:06.547Z,15.20
2023-02-19T19:09:33.950Z,10.63
2023-02-19T19:12:00.797Z,12.93
2023-02-19T19:14:27.394Z,11.53
2023-02-19T19:16:54.233Z,15.10
2023-02-19T19:19:20.798Z,20.07
2023-02-19T19:21:53.301Z,14.43
2023-02-19T19:24:21.316Z,14.00
2023-02-19T19:26:48.287Z,18.03
2023-02-19T19:29:16.139Z,14.30
2023-02-19T19:31:43.443Z,15.23
2023-02-19T19:34:10.829Z,17.63
2023-02-19T19:36:37.875Z,18.43
2023-02-19T19:39:04.704Z,16.93
2023-02-19T19:41:31.577Z,12.73
2023-02-19T19:43:58.237Z,10.73
2023-02-19T19:46:25.009Z,12.40
2023-02-19T19:48:52.853Z,7.80
2023-02-19T19:51:19.640Z,10.70
2023-02-19T19:53:49.580Z,7.73
2023-02-19T19:56:17.458Z,12.53
2023-02-19T19:58:43.974Z,18.97
2023-02-19T20:01:11.040Z,19.07
2023-02-19T20:03:37.996Z,16.97
2023-02-19T20:06:05.005Z,14.37
2023-02-19T20:08:31.661Z,9.50
2023-02-19T20:10:58.284Z,12.17
2023-02-19T20:13:26.439Z,12.80
2023-02-19T20:15:53.038Z,14.00
2023-02-19T20:18:21.645Z,13.63
2023-02-19T20:20:48.281Z,8.90
2023-02-19T20:23:14.843Z,8.40
2023-02-19T20:25:41.385Z,6.97
2023-02-19T20:28:08.093Z,11.53
2023-02-19T20:30:35.442Z,9.10
2023-02-19T20:33:02.217Z,9.10
2023-02-19T20:35:29.865Z,10.07
2023-02-19T20:37:57.738Z,9.33
2023-02-19T20:40:27.423Z,8.50
2023-02-19T20:42:54.285Z,6.40
2023-02-19T20:45:21.362Z,7.97
2023-02-19T20:47:48.047Z,6.87
2023-02-19T20:50:17.229Z,8.20
2023-02-19T20:52:43.872Z,9.67
2023-02-19T20:55:10.432Z,9.37
2023-02-19T20:57:37.747Z,6.87
2023-02-19T21:00:05.487Z,6.10
2023-02-19T21:02:32.135Z,7.90
2023-02-19T21:04:58.840Z,9.33
2023-02-19T21:07:26.044Z,8.60
2023-02-19T21:09:52.940Z,8.90
2023-02-19T21:12:20.733Z,8.77
2023-02-19T21:14:47.574Z,9.07
2023-02-19T21:17:14.049Z,8.87
2023-02-19T21:19:40.577Z,10.27
2023-02-19T21:22:07.455Z,12.97
2023-02-19T21:24:34.011Z,13.80
2023-02-19T21:27:00.479Z,12.33
2023-02-19T21:29:27.186Z,13.03
2023-02-19T21:31:56.099Z,16.27
2023-02-19T21:34:27.989Z,13.07
2023-02-19T21:36:55.510Z,14.00
2023-02-19T21:39:24.026Z,10.07
2023-02-19T21:41:50.515Z,8.03
2023-02-19T21:44:17.238Z,6.27
2023-02-19T21:46:43.708Z,13.23
2023-02-19T21:49:11.697Z,15.30
2023-02-19T21:51:40.461Z,9.97
2023-02-19T21:54:08.246Z,14.37
2023-02-19T21:56:36.569Z,9.43
2023-02-19T21:59:03.563Z,7.47
2023-02-19T22:01:35.271Z,15.00
2023-02-19T22:04:01.903Z,7.80
2023-02-19T22:06:30.069Z,9.57
2023-02-19T22:08:58.699Z,11.50
2023-02-19T22:11:25.635Z,7.37
2023-02-19T22:13:52.367Z,10.30
2023-02-19T22:16:19.409Z,12.47
2023-02-19T22:18:49.715Z,12.80
2023-02-19T22:21:16.824Z,7.87
2023-02-19T22:23:45.412Z,8.83
2023-02-19T22:26:29.120Z,6.77
2023-02-19T22:28:57.040Z,8.90
2023-02-19T22:31:24.976Z,10.30
2023-02-19T22:33:51.953Z,13.30
2023-02-19T22:36:23.239Z,10.60
2023-02-19T22:38:50.239Z,18.47
2023-02-19T22:41:17.557Z,9.53
2023-02-19T22:43:44.350Z,6.43
2023-02-19T22:46:13.773Z,11.40
2023-02-19T22:48:40.485Z,15.00
2023-02-19T22:51:13.281Z,14.33
2023-02-19T22:53:44.804Z,10.77
2023-02-19T22:56:12.330Z,12.80
2023-02-19T22:58:39.477Z,7.80
2023-02-19T23:01:06.370Z,13.63
2023-02-19T23:03:32.901Z,20.33
2023-02-19T23:06:03.290Z,13.83
2023-02-19T23:08:29.818Z,15.67
2023-02-19T23:10:57.106Z,13.63
2023-02-19T23:13:23.892Z,20.33
2023-02-19T23:15:50.476Z,12.80
2023-02-19T23:18:16.976Z,11.27
2023-02-19T23:20:43.447Z,14.80
2023-02-19T23:23:09.920Z,15.00
2023-02-19T23:25:36.342Z,14.53
2023-02-19T23:28:02.920Z,12.60
2023-02-19T23:30:29.493Z,16.67
2023-02-19T23:32:56.277Z,15.90
2023-02-19T23:35:23.396Z,12.90
2023-02-19T23:37:49.942Z,17.03
2023-02-19T23:40:16.837Z,21.40
2023-02-19T23:42:43.365Z,17.93
2023-02-19T23:45:09.893Z,10.93
2023-02-19T23:47:36.356Z,10.87
2023-02-19T23:50:02.872Z,11.00
2023-02-19T23:52:29.390Z,12.90
2023-02-19T23:54:56.030Z,8.03
2023-02-19T23:57:22.605Z,8.57
2023-02-19T23:59:49.093Z,9.57
